Time;durP1;ratioP1;P1;durP2;ratioP2;P2;SDS_P1;SDS_P2;PMS_P1;PMS_P2;Temp;Humidity;BMP_temperature;BMP_pressure;BME280_temperature;BME280_humidity;BME280_pressure;Samples;Min_cycle;Max_cycle;Signal;HPM_P1;HPM_P2
2021/11/16 00:00:22;;;;;;;8.38;5.72;;;15.70;96.70;;;;;;4891522;29;20055;-76
2021/11/16 00:02:50;;;;;;;9.32;5.97;;;15.70;96.70;;;;;;4873839;29;20462;-75
2021/11/16 00:05:18;;;;;;;6.03;5.38;;;15.70;96.70;;;;;;4872063;29;20111;-75
2021/11/16 00:07:48;;;;;;;7.78;6.30;;;15.80;96.70;;;;;;4891094;29;20091;-75
2021/11/16 00:10:17;;;;;;;6.03;5.10;;;15.80;96.70;;;;;;4884515;29;20044;-73
2021/11/16 00:12:45;;;;;;;7.47;6.00;;;15.70;96.70;;;;;;4894351;29;20094;-73
2021/11/16 00:15:13;;;;;;;8.30;6.30;;;15.70;96.70;;;;;;4892374;29;20049;-73
2021/11/16 00:17:43;;;;;;;8.15;6.07;;;15.70;96.70;;;;;;4873370;29;20048;-73
2021/11/16 00:20:13;;;;;;;6.57;5.35;;;15.70;96.70;;;;;;4888723;29;20069;-72
2021/11/16 00:22:43;;;;;;;8.00;6.15;;;15.60;96.70;;;;;;4863110;29;20040;-72
2021/11/16 00:27:43;;;;;;;6.75;5.78;;;15.60;96.70;;;;;;4890887;29;20067;-72
2021/11/16 00:30:14;;;;;;;6.32;5.65;;;15.60;96.70;;;;;;4868372;29;20067;-72
2021/11/16 00:32:44;;;;;;;6.50;5.80;;;15.50;96.70;;;;;;4860076;29;20143;-72
2021/11/16 00:35:12;;;;;;;7.75;5.40;;;15.50;96.70;;;;;;4872340;29;20060;-73
2021/11/16 00:37:40;;;;;;;8.43;5.88;;;15.50;96.70;;;;;;4888455;29;20880;-73
2021/11/16 00:40:19;;;;;;;6.28;5.43;;;15.50;96.70;;;;;;4888570;29;20040;-73
2021/11/16 00:42:50;;;;;;;7.80;5.43;;;15.60;96.70;;;;;;4875768;29;20079;-73
2021/11/16 00:45:19;;;;;;;7.95;5.43;;;15.50;96.70;;;;;;4891265;29;20124;-73
2021/11/16 00:47:48;;;;;;;6.22;5.15;;;15.60;96.70;;;;;;4862137;29;20347;-75
2021/11/16 00:50:16;;;;;;;6.38;5.32;;;15.60;96.70;;;;;;4885757;29;20544;-75
2021/11/16 00:52:45;;;;;;;5.40;4.75;;;15.60;96.70;;;;;;4890051;29;20048;-76
2021/11/16 00:55:14;;;;;;;6.35;5.20;;;15.70;96.70;;;;;;4870440;29;20555;-76
2021/11/16 00:57:43;;;;;;;6.85;5.20;;;15.70;96.70;;;;;;4872976;29;20045;-76
2021/11/16 01:00:15;;;;;;;6.05;5.22;;;15.70;96.70;;;;;;4888241;29;20123;-75
2021/11/16 01:02:45;;;;;;;5.10;4.60;;;15.70;96.70;;;;;;4890686;29;20045;-75
2021/11/16 01:05:14;;;;;;;6.45;5.05;;;15.70;96.70;;;;;;4870457;29;20385;-75
2021/11/16 01:07:43;;;;;;;5.40;4.82;;;15.70;96.70;;;;;;4886368;29;20506;-75
2021/11/16 01:10:14;;;;;;;6.00;4.50;;;15.70;96.70;;;;;;4869082;29;20469;-75
2021/11/16 01:12:43;;;;;;;4.85;4.35;;;15.70;96.70;;;;;;4873652;29;20049;-75
2021/11/16 01:15:14;;;;;;;5.40;4.70;;;15.70;96.70;;;;;;4889945;29;20135;-76
2021/11/16 01:17:43;;;;;;;6.97;5.00;;;15.70;96.70;;;;;;4893605;29;20041;-76
2021/11/16 01:20:15;;;;;;;6.03;5.25;;;15.70;96.70;;;;;;4880655;29;20514;-75
2021/11/16 01:22:46;;;;;;;7.55;5.43;;;15.70;96.70;;;;;;4848569;29;20053;-76
2021/11/16 01:25:15;;;;;;;5.95;4.88;;;15.60;96.70;;;;;;4884224;29;20568;-75
2021/11/16 01:27:43;;;;;;;5.25;4.75;;;15.70;96.70;;;;;;4880301;29;20685;-75
2021/11/16 01:30:14;;;;;;;8.70;5.25;;;15.60;96.70;;;;;;4874223;29;20053;-75
2021/11/16 01:32:46;;;;;;;6.10;4.80;;;15.60;96.70;;;;;;4864117;29;20438;-75
2021/11/16 01:35:16;;;;;;;6.20;5.32;;;15.60;96.70;;;;;;4871140;29;20143;-75
2021/11/16 01:37:44;;;;;;;6.63;5.18;;;15.50;96.70;;;;;;4868870;29;20053;-75
2021/11/16 01:40:17;;;;;;;7.97;5.20;;;15.50;96.70;;;;;;4868373;29;20061;-75
2021/11/16 01:42:48;;;;;;;7.22;5.13;;;15.40;96.70;;;;;;4885855;29;20152;-75
2021/11/16 01:45:17;;;;;;;5.13;4.63;;;15.40;96.70;;;;;;4874162;29;20075;-76
2021/11/16 01:47:46;;;;;;;6.20;4.82;;;15.40;96.70;;;;;;4885803;29;20045;-75
2021/11/16 01:50:18;;;;;;;6.38;5.03;;;15.40;96.70;;;;;;4884521;29;20144;-75
2021/11/16 01:52:46;;;;;;;5.80;5.00;;;15.30;96.70;;;;;;4870529;29;20045;-75
2021/11/16 01:55:16;;;;;;;6.55;5.13;;;15.30;96.70;;;;;;4884711;29;20053;-76
2021/11/16 01:57:45;;;;;;;7.20;5.68;;;15.30;96.70;;;;;;4886939;29;20080;-75
2021/11/16 02:00:17;;;;;;;6.13;5.18;;;15.30;96.70;;;;;;4881280;29;20048;-76
2021/11/16 02:02:45;;;;;;;5.28;4.78;;;15.30;96.70;;;;;;4869200;29;20040;-75
2021/11/16 02:05:15;;;;;;;5.40;4.28;;;15.20;96.70;;;;;;4885414;29;20048;-76
2021/11/16 02:07:47;;;;;;;7.70;5.38;;;15.20;96.70;;;;;;4885220;29;20047;-75
2021/11/16 02:10:16;;;;;;;5.88;4.63;;;15.20;96.70;;;;;;4886746;29;20076;-75
2021/11/16 02:12:44;;;;;;;8.43;4.97;;;15.20;96.70;;;;;;4869521;29;20467;-75
2021/11/16 02:15:12;;;;;;;5.90;4.63;;;15.20;96.70;;;;;;4857559;29;20051;-75
2021/11/16 02:17:43;;;;;;;6.15;5.22;;;15.20;96.70;;;;;;4869233;29;20131;-76
2021/11/16 02:20:11;;;;;;;7.47;5.57;;;15.10;96.70;;;;;;4886223;29;20428;-75
2021/11/16 02:22:42;;;;;;;7.22;5.13;;;15.00;96.70;;;;;;4886219;29;20743;-75
2021/11/16 02:25:11;;;;;;;6.82;4.60;;;15.00;96.70;;;;;;4887412;29;20041;-75
2021/11/16 02:27:39;;;;;;;6.40;5.30;;;15.10;96.70;;;;;;4869493;29;20060;-75
2021/11/16 02:30:09;;;;;;;5.85;5.20;;;15.00;96.70;;;;;;4870756;29;20049;-75
2021/11/16 02:32:37;;;;;;;5.72;5.05;;;15.10;96.70;;;;;;4868651;29;20041;-75
2021/11/16 02:35:07;;;;;;;6.32;4.80;;;15.10;96.70;;;;;;4872529;29;20406;-75
2021/11/16 02:37:35;;;;;;;5.90;4.93;;;15.10;96.70;;;;;;4884756;29;20365;-75
2021/11/16 02:40:05;;;;;;;6.22;4.47;;;15.10;96.70;;;;;;4886225;29;21184;-75
2021/11/16 02:42:35;;;;;;;6.45;5.80;;;15.10;96.70;;;;;;4884005;29;20243;-75
2021/11/16 02:45:04;;;;;;;6.82;5.72;;;15.20;96.70;;;;;;4886634;29;20064;-75
2021/11/16 02:47:33;;;;;;;6.35;5.55;;;15.20;96.70;;;;;;4871345;29;20067;-75
2021/11/16 02:50:01;;;;;;;7.45;5.53;;;15.20;96.70;;;;;;4885406;29;20516;-76
2021/11/16 02:52:28;;;;;;;5.65;4.75;;;15.20;96.70;;;;;;4869304;29;20052;-75
2021/11/16 02:54:57;;;;;;;6.82;5.25;;;15.10;96.70;;;;;;4888088;29;20075;-75
2021/11/16 02:57:27;;;;;;;7.53;5.22;;;15.00;96.70;;;;;;4870333;29;20056;-75
2021/11/16 02:59:55;;;;;;;6.60;5.05;;;15.00;96.70;;;;;;4889267;29;20044;-75
2021/11/16 03:02:23;;;;;;;7.65;5.60;;;15.00;96.70;;;;;;4873068;29;20502;-75
2021/11/16 03:04:52;;;;;;;6.85;5.35;;;14.90;96.70;;;;;;4885820;29;20052;-75
2021/11/16 03:07:31;;;;;;;8.38;6.13;;;14.90;96.70;;;;;;4872658;29;20050;-75
2021/11/16 03:09:59;;;;;;;7.43;6.10;;;14.90;96.70;;;;;;4888500;29;20100;-75
2021/11/16 03:12:30;;;;;;;6.60;5.35;;;14.90;96.70;;;;;;4869161;29;20521;-75
2021/11/16 03:14:59;;;;;;;8.20;5.82;;;14.80;96.70;;;;;;4888900;29;20046;-75
2021/11/16 03:17:27;;;;;;;7.65;5.97;;;14.70;96.70;;;;;;4874230;29;20081;-75
2021/11/16 03:19:55;;;;;;;7.88;6.03;;;14.70;96.70;;;;;;4873102;29;20475;-75
2021/11/16 03:22:30;;;;;;;8.73;6.28;;;14.70;96.70;;;;;;4872864;29;20466;-75
2021/11/16 03:24:59;;;;;;;11.60;6.78;;;14.70;96.70;;;;;;4870955;29;20507;-75
2021/11/16 03:27:36;;;;;;;7.50;6.45;;;14.70;96.70;;;;;;4890221;29;20092;-76
2021/11/16 03:30:05;;;;;;;7.47;6.03;;;14.70;96.70;;;;;;4887651;29;20448;-75
2021/11/16 03:32:35;;;;;;;8.98;6.53;;;14.70;96.70;;;;;;4890292;29;20445;-75
2021/11/16 03:35:05;;;;;;;8.15;6.13;;;14.70;96.70;;;;;;4891388;29;20052;-75
2021/11/16 03:37:38;;;;;;;9.68;7.32;;;14.70;96.70;;;;;;4886659;29;20139;-75
2021/11/16 03:40:07;;;;;;;12.23;6.93;;;14.70;96.70;;;;;;4871774;29;20456;-75
2021/11/16 03:42:40;;;;;;;9.48;6.88;;;14.80;96.70;;;;;;4858353;29;20139;-75
2021/11/16 03:45:09;;;;;;;7.53;6.25;;;14.80;96.70;;;;;;4887300;29;20044;-75
2021/11/16 03:47:37;;;;;;;7.95;6.80;;;14.80;96.70;;;;;;4875292;29;20051;-76
2021/11/16 03:50:06;;;;;;;8.70;6.38;;;14.80;96.70;;;;;;4891806;29;20366;-75
2021/11/16 03:52:39;;;;;;;7.82;6.13;;;14.80;96.70;;;;;;4857992;29;20130;-75
2021/11/16 03:55:08;;;;;;;9.25;7.25;;;14.80;96.70;;;;;;4888465;29;20465;-75
2021/11/16 03:57:38;;;;;;;10.80;7.43;;;14.80;96.70;;;;;;4872563;29;20048;-75
2021/11/16 04:00:08;;;;;;;11.18;7.53;;;14.80;96.70;;;;;;4886029;29;20476;-75
2021/11/16 04:02:36;;;;;;;8.75;7.30;;;14.80;96.70;;;;;;4890947;29;20135;-75
2021/11/16 04:05:05;;;;;;;9.18;7.13;;;14.80;96.70;;;;;;4871062;29;20152;-75
2021/11/16 04:07:33;;;;;;;9.77;7.43;;;14.90;96.70;;;;;;4872719;29;20048;-75
2021/11/16 04:10:03;;;;;;;8.77;6.85;;;14.90;96.70;;;;;;4885789;29;20051;-75
2021/11/16 04:12:30;;;;;;;10.50;8.10;;;14.90;96.70;;;;;;4871202;29;20128;-75
2021/11/16 04:15:01;;;;;;;8.85;7.28;;;14.80;96.70;;;;;;4889421;29;20047;-75
2021/11/16 04:17:29;;;;;;;9.55;7.40;;;14.80;96.70;;;;;;4873365;29;20108;-75
2021/11/16 04:19:57;;;;;;;12.35;7.80;;;14.80;96.70;;;;;;4887045;29;20040;-75
2021/11/16 04:22:25;;;;;;;11.70;7.88;;;14.80;96.70;;;;;;4889364;29;20068;-75
2021/11/16 04:24:55;;;;;;;10.30;8.02;;;14.80;96.70;;;;;;4873102;29;20058;-75
2021/11/16 04:27:23;;;;;;;11.15;8.32;;;14.80;96.70;;;;;;4871702;29;20127;-75
2021/11/16 04:29:52;;;;;;;8.88;7.53;;;14.80;96.70;;;;;;4869550;29;20056;-76
2021/11/16 04:32:22;;;;;;;9.57;8.38;;;14.80;96.70;;;;;;4871774;29;20415;-75
2021/11/16 04:34:50;;;;;;;11.07;8.23;;;14.80;96.70;;;;;;4886233;29;20040;-75
2021/11/16 04:37:18;;;;;;;9.07;7.95;;;14.80;96.70;;;;;;4889943;29;20725;-74
2021/11/16 04:39:46;;;;;;;14.27;8.65;;;14.80;96.70;;;;;;4870760;29;20507;-75
2021/11/16 04:42:13;;;;;;;9.80;7.72;;;14.80;96.70;;;;;;4890051;29;20049;-75
2021/11/16 04:44:42;;;;;;;10.60;8.55;;;14.80;96.70;;;;;;4875628;29;20056;-75
2021/11/16 04:47:13;;;;;;;9.88;8.02;;;14.80;96.70;;;;;;4873468;29;20039;-75
2021/11/16 04:49:46;;;;;;;11.63;8.57;;;14.90;96.70;;;;;;4874124;29;20065;-76
2021/11/16 04:52:31;;;;;;;11.68;9.35;;;14.90;96.70;;;;;;4894405;29;20049;-75
2021/11/16 04:55:23;;;;;;;10.60;8.35;;;14.90;96.70;;;;;;4888132;29;20047;-75
2021/11/16 05:03:30;;;;;;;10.20;8.68;;;14.90;96.70;;;;;;4871263;29;20354;-75
2021/11/16 05:06:00;;;;;;;10.82;8.60;;;14.80;96.70;;;;;;4885994;29;20037;-75
2021/11/16 05:08:28;;;;;;;12.25;9.25;;;14.80;96.70;;;;;;4890295;29;20048;-75
2021/11/16 05:10:55;;;;;;;10.45;8.98;;;14.80;96.70;;;;;;4874213;29;20498;-75
2021/11/16 05:13:23;;;;;;;11.68;9.52;;;14.80;96.70;;;;;;4875879;29;20484;-75
2021/11/16 05:16:07;;;;;;;11.35;9.05;;;14.90;96.70;;;;;;4873623;29;20092;-75
2021/11/16 05:18:39;;;;;;;10.52;8.70;;;14.90;96.70;;;;;;4860480;29;20053;-75
2021/11/16 05:21:10;;;;;;;10.63;8.25;;;14.90;96.70;;;;;;4884139;29;20044;-75
2021/11/16 05:23:47;;;;;;;11.30;8.02;;;14.90;96.70;;;;;;4872156;29;20048;-75
2021/11/16 05:26:15;;;;;;;11.25;7.95;;;14.90;96.70;;;;;;4888059;29;20048;-75
2021/11/16 05:28:43;;;;;;;11.60;8.40;;;14.90;96.70;;;;;;4886012;29;20048;-75
2021/11/16 05:31:11;;;;;;;10.63;8.48;;;14.90;96.70;;;;;;4886704;29;20052;-76
2021/11/16 05:33:38;;;;;;;12.38;8.38;;;15.00;96.70;;;;;;4887658;29;20125;-76
2021/11/16 05:36:09;;;;;;;11.90;9.18;;;15.00;96.70;;;;;;4885238;29;20060;-75
2021/11/16 05:38:38;;;;;;;11.13;8.50;;;15.00;96.70;;;;;;4889259;29;20155;-75
2021/11/16 05:41:07;;;;;;;10.38;8.90;;;15.00;96.70;;;;;;4871376;29;20052;-75
2021/11/16 05:43:36;;;;;;;11.32;9.23;;;14.90;96.70;;;;;;4878834;29;20048;-75
2021/11/16 05:46:04;;;;;;;11.95;9.23;;;14.90;96.70;;;;;;4874115;29;20451;-75
2021/11/16 05:48:33;;;;;;;10.35;8.13;;;14.90;96.70;;;;;;4871325;29;20045;-75
2021/11/16 05:51:01;;;;;;;11.35;9.13;;;14.80;96.70;;;;;;4885048;29;20410;-75
2021/11/16 05:53:31;;;;;;;10.50;8.32;;;14.80;96.70;;;;;;4868821;29;20045;-75
2021/11/16 05:55:59;;;;;;;11.38;8.88;;;14.80;96.70;;;;;;4870698;29;20411;-75
2021/11/16 05:58:27;;;;;;;10.45;8.57;;;14.80;96.70;;;;;;4868933;29;20309;-75
2021/11/16 06:00:55;;;;;;;9.63;7.75;;;14.80;96.70;;;;;;4888712;29;21261;-76
2021/11/16 06:03:23;;;;;;;10.27;8.57;;;14.80;96.70;;;;;;4887946;29;20494;-75
2021/11/16 06:05:51;;;;;;;12.45;8.68;;;14.80;96.70;;;;;;4891476;29;20142;-75
2021/11/16 06:08:21;;;;;;;12.77;8.98;;;14.80;96.70;;;;;;4872726;29;20143;-75
2021/11/16 06:10:51;;;;;;;12.60;8.98;;;14.70;96.70;;;;;;4849482;29;20632;-75
2021/11/16 06:13:19;;;;;;;10.18;8.45;;;14.70;96.70;;;;;;4873603;29;20046;-76
2021/11/16 06:15:47;;;;;;;12.60;8.57;;;14.70;96.70;;;;;;4860769;29;20787;-75
2021/11/16 06:18:19;;;;;;;12.05;8.63;;;14.70;96.70;;;;;;4870729;29;20040;-76
2021/11/16 06:20:49;;;;;;;10.93;8.63;;;14.70;96.70;;;;;;4882076;29;20056;-75
2021/11/16 06:23:18;;;;;;;11.82;9.32;;;14.70;96.70;;;;;;4875140;29;20576;-75
2021/11/16 06:25:46;;;;;;;11.38;8.85;;;14.70;96.70;;;;;;4885612;29;20048;-75
2021/11/16 06:28:16;;;;;;;13.13;9.50;;;14.70;96.70;;;;;;4889135;29;20687;-75
2021/11/16 06:30:44;;;;;;;10.60;8.25;;;14.60;96.70;;;;;;4888161;29;20068;-75
2021/11/16 06:33:11;;;;;;;11.25;7.78;;;14.60;96.70;;;;;;4882662;29;20060;-75
2021/11/16 06:35:39;;;;;;;10.18;8.45;;;14.60;96.70;;;;;;4874429;29;20072;-75
2021/11/16 06:38:07;;;;;;;11.68;8.60;;;14.60;96.70;;;;;;4880556;29;20165;-76
2021/11/16 06:40:35;;;;;;;10.95;8.23;;;14.60;96.70;;;;;;4873123;29;20488;-75
2021/11/16 06:43:03;;;;;;;9.50;8.07;;;14.70;96.70;;;;;;4888764;29;20514;-75
2021/11/16 06:45:33;;;;;;;11.55;8.32;;;14.70;96.70;;;;;;4873858;29;20440;-74
2021/11/16 06:48:01;;;;;;;10.82;7.50;;;14.70;96.70;;;;;;4891072;29;20048;-74
2021/11/16 06:50:30;;;;;;;10.98;8.07;;;14.70;96.70;;;;;;4857199;29;20056;-75
2021/11/16 06:52:58;;;;;;;9.85;7.53;;;14.70;96.70;;;;;;4886279;29;20483;-75
2021/11/16 06:55:26;;;;;;;9.88;8.18;;;14.70;96.70;;;;;;4885243;29;20105;-75
2021/11/16 06:57:53;;;;;;;9.45;7.65;;;14.70;96.70;;;;;;4888571;29;20040;-75
2021/11/16 07:00:21;;;;;;;9.20;7.07;;;14.70;96.70;;;;;;4888123;29;20100;-75
2021/11/16 07:02:57;;;;;;;11.00;7.55;;;14.70;96.70;;;;;;4886719;29;20052;-75
2021/11/16 07:05:28;;;;;;;9.90;7.38;;;14.70;96.70;;;;;;4873400;29;20044;-75
2021/11/16 07:07:56;;;;;;;10.75;8.43;;;14.70;96.70;;;;;;4888414;29;20048;-75
2021/11/16 07:10:30;;;;;;;10.82;7.35;;;14.70;96.70;;;;;;4872896;29;20041;-74
2021/11/16 07:13:08;;;;;;;10.38;7.63;;;14.80;96.70;;;;;;4869349;29;20136;-75
2021/11/16 07:15:36;;;;;;;10.32;8.00;;;14.80;96.70;;;;;;4868503;29;20052;-75
2021/11/16 07:18:06;;;;;;;11.52;8.52;;;14.80;96.70;;;;;;4859060;29;20052;-75
2021/11/16 07:20:34;;;;;;;10.80;7.93;;;14.80;96.70;;;;;;4888039;29;20041;-74
2021/11/16 07:23:08;;;;;;;9.15;7.35;;;14.80;96.70;;;;;;4889340;29;20041;-75
2021/11/16 07:25:38;;;;;;;10.43;8.07;;;14.90;96.70;;;;;;4872322;29;20159;-75
2021/11/16 07:28:05;;;;;;;13.45;9.05;;;14.90;96.70;;;;;;4859758;29;20043;-74
2021/11/16 07:30:35;;;;;;;10.80;8.18;;;14.90;96.70;;;;;;4872344;29;20060;-75
2021/11/16 07:33:14;;;;;;;13.10;8.55;;;14.90;96.70;;;;;;4875660;29;20074;-75
2021/11/16 07:35:44;;;;;;;9.38;6.97;;;14.90;96.70;;;;;;4884886;29;20514;-75
2021/11/16 07:38:15;;;;;;;10.48;7.80;;;14.80;96.70;;;;;;4873332;29;20123;-74
2021/11/16 07:40:46;;;;;;;9.15;7.25;;;14.90;96.70;;;;;;4871809;29;20062;-75
2021/11/16 07:43:17;;;;;;;9.82;7.47;;;14.90;96.70;;;;;;4889892;29;20601;-75
2021/11/16 07:45:48;;;;;;;8.30;6.80;;;14.90;96.70;;;;;;4886285;29;20056;-75
2021/11/16 07:48:20;;;;;;;8.82;7.63;;;14.90;96.70;;;;;;4876027;29;20045;-75
2021/11/16 07:50:54;;;;;;;8.18;6.78;;;14.90;96.70;;;;;;4873984;29;20466;-75
2021/11/16 07:53:29;;;;;;;10.02;6.70;;;14.80;96.70;;;;;;4871281;29;20048;-74
2021/11/16 07:56:01;;;;;;;7.35;6.32;;;14.90;96.70;;;;;;4890429;29;20044;-75
2021/11/16 07:58:33;;;;;;;8.98;6.32;;;15.00;96.70;;;;;;4886344;29;20523;-75
2021/11/16 08:01:05;;;;;;;7.40;6.07;;;15.00;96.70;;;;;;4883788;29;20139;-74
2021/11/16 08:03:49;;;;;;;7.78;6.85;;;15.00;96.70;;;;;;4871224;29;20399;-74
2021/11/16 08:06:27;;;;;;;8.55;6.43;;;15.00;96.70;;;;;;4881989;29;20712;-74
2021/11/16 08:09:41;;;;;;;7.82;6.32;;;15.00;96.70;;;;;;4869476;29;20547;-75
2021/11/16 08:11:59;;;;;;;13.82;10.38;;;15.00;96.70;;;;;;4882462;29;20135;-75
2021/11/16 08:14:27;;;;;;;23.73;15.30;;;15.10;96.70;;;;;;4873436;29;20151;-75
2021/11/16 08:16:59;;;;;;;12.93;9.23;;;15.10;96.70;;;;;;4873790;29;20551;-74
2021/11/16 08:19:31;;;;;;;8.88;7.43;;;15.20;96.70;;;;;;4870225;29;20147;-74
2021/11/16 08:22:00;;;;;;;8.82;6.97;;;15.20;96.70;;;;;;4873454;29;20055;-74
2021/11/16 08:24:30;;;;;;;10.77;6.93;;;15.30;96.70;;;;;;4873361;29;20096;-75
2021/11/16 08:27:00;;;;;;;8.45;6.85;;;15.40;96.70;;;;;;4870805;29;20044;-74
2021/11/16 08:29:30;;;;;;;9.27;6.85;;;15.40;96.70;;;;;;4888263;29;20045;-75
2021/11/16 08:32:09;;;;;;;8.50;6.85;;;15.50;96.70;;;;;;4852767;29;20053;-75
2021/11/16 08:34:42;;;;;;;8.40;6.50;;;15.60;96.70;;;;;;4887526;29;20044;-75
2021/11/16 08:37:11;;;;;;;9.68;7.22;;;15.60;96.70;;;;;;4869870;29;20056;-74
2021/11/16 08:39:42;;;;;;;8.85;7.13;;;15.60;96.70;;;;;;4888789;29;20541;-74
2021/11/16 08:42:17;;;;;;;8.52;7.30;;;15.60;96.70;;;;;;4889061;29;20037;-75
2021/11/16 08:44:53;;;;;;;9.68;6.38;;;15.60;96.70;;;;;;4877681;29;20483;-74
2021/11/16 08:47:27;;;;;;;9.93;7.13;;;15.60;96.70;;;;;;4870069;29;20044;-74
2021/11/16 08:49:56;;;;;;;9.10;6.95;;;15.50;96.70;;;;;;4882928;29;20515;-74
2021/11/16 08:52:28;;;;;;;8.15;7.15;;;15.40;96.70;;;;;;4870080;29;20207;-74
2021/11/16 08:54:59;;;;;;;9.75;7.43;;;15.40;96.70;;;;;;4886155;29;20100;-74
2021/11/16 08:57:28;;;;;;;10.75;8.65;;;15.40;96.70;;;;;;4868903;29;20414;-75
2021/11/16 08:59:57;;;;;;;12.07;7.65;;;15.30;96.70;;;;;;4873042;29;20127;-75
2021/11/16 09:02:27;;;;;;;12.27;8.32;;;15.30;96.70;;;;;;4883326;29;20045;-75
2021/11/16 09:05:09;;;;;;;10.77;7.72;;;15.20;96.70;;;;;;4871878;29;20049;-75
2021/11/16 09:07:49;;;;;;;9.67;7.53;;;15.20;96.70;;;;;;4869257;29;20111;-74
2021/11/16 09:10:17;;;;;;;8.88;6.95;;;15.20;96.70;;;;;;4870699;29;20388;-75
2021/11/16 09:12:53;;;;;;;9.30;6.78;;;15.20;96.70;;;;;;4868277;29;20049;-75
2021/11/16 09:15:31;;;;;;;8.90;7.05;;;15.20;96.70;;;;;;4855098;29;20484;-75
2021/11/16 09:18:12;;;;;;;11.00;7.10;;;15.30;96.70;;;;;;4883999;29;20153;-74
2021/11/16 09:20:44;;;;;;;9.60;7.18;;;15.30;96.70;;;;;;4883519;29;20059;-75
2021/11/16 09:23:24;;;;;;;8.95;7.10;;;15.20;96.70;;;;;;4887246;29;20519;-74
2021/11/16 09:26:04;;;;;;;7.50;6.13;;;15.30;96.70;;;;;;4867256;29;20097;-74
2021/11/16 09:28:35;;;;;;;7.65;6.47;;;15.30;96.70;;;;;;4885922;29;20407;-74
2021/11/16 09:31:17;;;;;;;10.70;6.40;;;15.30;96.70;;;;;;4884572;29;20044;-74
2021/11/16 09:33:45;;;;;;;6.80;6.03;;;15.30;96.70;;;;;;4870252;29;20083;-74
2021/11/16 09:36:21;;;;;;;7.82;6.55;;;15.30;96.70;;;;;;4886695;29;20045;-75
2021/11/16 09:38:56;;;;;;;8.98;6.80;;;15.30;96.70;;;;;;4886645;29;20745;-74
2021/11/16 09:41:35;;;;;;;8.30;6.28;;;15.20;96.70;;;;;;4865332;29;20100;-74
2021/11/16 09:44:09;;;;;;;7.82;5.95;;;15.10;96.70;;;;;;4870019;29;20055;-74
2021/11/16 09:46:46;;;;;;;9.32;7.47;;;15.10;96.70;;;;;;4869570;29;20048;-74
2021/11/16 09:49:16;;;;;;;7.18;5.90;;;15.00;96.70;;;;;;4887572;29;20583;-74
2021/11/16 09:51:57;;;;;;;7.82;5.80;;;14.90;96.70;;;;;;4870412;29;20060;-75
2021/11/16 09:54:26;;;;;;;9.25;6.38;;;14.80;96.70;;;;;;4870746;29;20049;-74
2021/11/16 09:57:07;;;;;;;7.68;6.25;;;14.80;96.70;;;;;;4869298;29;20445;-74
2021/11/16 09:59:37;;;;;;;8.65;6.70;;;14.70;96.70;;;;;;4888612;29;20553;-74
2021/11/16 10:02:06;;;;;;;8.38;6.88;;;14.70;96.70;;;;;;4886386;29;20099;-74
2021/11/16 10:04:42;;;;;;;9.70;6.75;;;14.70;96.70;;;;;;4882205;29;20040;-74
2021/11/16 10:07:13;;;;;;;11.77;8.95;;;14.70;96.70;;;;;;4884659;29;20072;-74
2021/11/16 10:09:42;;;;;;;11.18;8.27;;;14.60;96.70;;;;;;4886719;29;20071;-74
2021/11/16 10:12:10;;;;;;;13.30;9.07;;;14.60;96.70;;;;;;4884600;29;20928;-74
2021/11/16 10:14:38;;;;;;;12.52;8.45;;;14.60;96.70;;;;;;4871558;29;20135;-74
2021/11/16 10:17:06;;;;;;;12.18;7.43;;;14.70;96.70;;;;;;4886211;29;20672;-75
2021/11/16 10:19:41;;;;;;;8.57;6.50;;;14.60;96.70;;;;;;4868178;29;20411;-74
2021/11/16 10:22:16;;;;;;;8.45;6.93;;;14.70;96.70;;;;;;4870569;29;20412;-75
2021/11/16 10:24:45;;;;;;;8.30;6.50;;;14.70;96.70;;;;;;4883153;29;20180;-72
2021/11/16 10:27:31;;;;;;;8.75;7.05;;;14.70;96.70;;;;;;4870730;29;20046;-74
2021/11/16 10:30:19;;;;;;;9.98;7.07;;;14.80;96.70;;;;;;4885325;29;20151;-75
2021/11/16 10:33:04;;;;;;;10.77;7.80;;;14.70;96.70;;;;;;4869350;29;20503;-74
2021/11/16 10:35:32;;;;;;;9.27;7.15;;;14.70;96.70;;;;;;4887159;29;20044;-74
2021/11/16 10:38:04;;;;;;;10.80;7.75;;;14.70;96.70;;;;;;4867832;29;20056;-75
2021/11/16 10:40:33;;;;;;;8.95;7.45;;;14.70;96.70;;;;;;4870777;29;20053;-76
2021/11/16 10:43:02;;;;;;;10.30;7.72;;;14.70;96.70;;;;;;4885282;29;20761;-76
2021/11/16 10:45:33;;;;;;;9.40;7.45;;;14.60;96.70;;;;;;4868787;29;20529;-75
2021/11/16 10:48:08;;;;;;;9.55;7.18;;;14.50;96.70;;;;;;4881168;29;20311;-75
2021/11/16 10:50:37;;;;;;;8.10;6.32;;;14.50;96.70;;;;;;4865667;29;20152;-76
2021/11/16 10:53:11;;;;;;;9.27;7.28;;;14.40;96.70;;;;;;4886257;29;20032;-75
2021/11/16 10:55:43;;;;;;;8.88;7.00;;;14.50;96.70;;;;;;4869136;29;20509;-75
2021/11/16 10:58:13;;;;;;;9.50;6.97;;;14.50;96.70;;;;;;4886634;29;20135;-75
2021/11/16 11:00:46;;;;;;;8.13;6.55;;;14.50;96.70;;;;;;4886620;29;20568;-76
2021/11/16 11:03:21;;;;;;;8.50;6.38;;;14.50;96.70;;;;;;4884878;29;20508;-76
2021/11/16 11:05:50;;;;;;;8.00;6.38;;;14.60;96.70;;;;;;4887147;29;20105;-75
2021/11/16 11:08:31;;;;;;;7.20;6.00;;;14.60;96.70;;;;;;4866693;29;20129;-75
2021/11/16 11:11:01;;;;;;;8.00;6.22;;;14.60;96.70;;;;;;4881986;29;20539;-75
2021/11/16 11:13:35;;;;;;;9.55;6.15;;;14.40;96.70;;;;;;4869397;29;20045;-76
2021/11/16 11:16:14;;;;;;;7.47;6.15;;;14.30;96.70;;;;;;4871367;29;20043;-76
2021/11/16 11:18:45;;;;;;;9.40;6.50;;;14.30;96.70;;;;;;4886013;29;20087;-75
2021/11/16 11:21:26;;;;;;;7.43;6.35;;;14.30;96.70;;;;;;4872340;29;20554;-75
2021/11/16 11:24:02;;;;;;;9.15;7.15;;;14.40;96.70;;;;;;4871764;29;20415;-76
2021/11/16 11:26:45;;;;;;;9.80;6.55;;;14.50;96.70;;;;;;4870732;29;20434;-76
2021/11/16 11:29:34;;;;;;;8.65;7.15;;;14.60;96.70;;;;;;4888202;29;20095;-76
2021/11/16 11:32:12;;;;;;;9.70;7.07;;;14.60;96.70;;;;;;4888859;29;20040;-76
2021/11/16 11:34:44;;;;;;;11.98;8.82;;;14.60;96.70;;;;;;4876477;29;20796;-76
2021/11/16 11:37:17;;;;;;;12.05;9.32;;;14.60;96.70;;;;;;4874277;29;20057;-75
2021/11/16 11:39:54;;;;;;;10.13;8.05;;;14.70;96.70;;;;;;4890211;29;20129;-76
2021/11/16 11:42:23;;;;;;;10.90;7.95;;;14.70;96.70;;;;;;4873599;29;20063;-75
2021/11/16 11:45:15;;;;;;;11.10;8.48;;;14.70;96.70;;;;;;4887859;29;20363;-76
2021/11/16 11:47:43;;;;;;;10.32;8.02;;;14.70;96.70;;;;;;4878343;29;20143;-75
2021/11/16 11:50:25;;;;;;;9.05;7.95;;;14.50;96.70;;;;;;4887328;29;20462;-75
2021/11/16 11:52:54;;;;;;;10.35;7.57;;;14.50;96.70;;;;;;4878131;29;20045;-75
2021/11/16 11:55:25;;;;;;;8.98;8.07;;;14.60;96.70;;;;;;4888079;29;20101;-75
2021/11/16 11:57:54;;;;;;;11.82;8.80;;;14.50;96.70;;;;;;4856994;29;20053;-76
2021/11/16 12:00:24;;;;;;;10.18;7.93;;;14.60;96.70;;;;;;4886743;29;20066;-75
2021/11/16 12:02:53;;;;;;;12.35;8.10;;;14.60;96.70;;;;;;4893295;29;20419;-76
2021/11/16 12:05:24;;;;;;;9.82;7.57;;;14.70;96.70;;;;;;4870785;29;20052;-76
2021/11/16 12:07:52;;;;;;;10.50;7.72;;;14.60;96.70;;;;;;4874134;29;20053;-75
2021/11/16 12:10:21;;;;;;;9.90;7.07;;;14.70;96.70;;;;;;4888210;29;20120;-76
2021/11/16 12:12:52;;;;;;;8.65;7.40;;;14.70;96.70;;;;;;4872102;29;20045;-75
2021/11/16 12:15:26;;;;;;;8.88;7.18;;;14.70;96.70;;;;;;4890704;29;20045;-75
2021/11/16 12:17:56;;;;;;;8.10;6.10;;;14.80;96.70;;;;;;4888345;29;20048;-73
2021/11/16 12:20:39;;;;;;;7.15;6.30;;;14.80;96.70;;;;;;4884191;29;20098;-73
2021/11/16 12:23:09;;;;;;;8.02;6.68;;;14.80;96.70;;;;;;4873644;29;20056;-73
2021/11/16 12:25:38;;;;;;;7.45;6.63;;;15.10;96.70;;;;;;4864120;29;20101;-72
2021/11/16 12:28:25;;;;;;;7.03;6.00;;;15.20;96.70;;;;;;4885571;29;20072;-73
2021/11/16 12:30:54;;;;;;;7.90;5.40;;;15.20;96.70;;;;;;4891405;29;20593;-73
2021/11/16 12:33:40;;;;;;;6.88;5.57;;;15.20;96.70;;;;;;4855916;29;20053;-73
2021/11/16 12:36:12;;;;;;;6.15;5.35;;;15.10;96.70;;;;;;4887692;29;20754;-73
2021/11/16 12:38:43;;;;;;;5.70;5.10;;;15.10;96.70;;;;;;4887487;29;20093;-73
2021/11/16 12:41:36;;;;;;;6.45;5.05;;;15.20;96.70;;;;;;4884073;29;20594;-72
2021/11/16 12:44:07;;;;;;;6.15;5.00;;;15.20;96.70;;;;;;4870538;29;20048;-73
2021/11/16 12:46:37;;;;;;;5.30;4.60;;;15.20;96.70;;;;;;4876267;29;20435;-75
2021/11/16 12:49:08;;;;;;;6.45;5.15;;;15.10;96.70;;;;;;4857617;29;20052;-75
2021/11/16 12:51:38;;;;;;;4.95;4.20;;;15.10;96.70;;;;;;4871990;29;20048;-75
2021/11/16 12:54:08;;;;;;;5.63;4.38;;;15.10;96.70;;;;;;4873116;29;20081;-76
2021/11/16 12:57:10;;;;;;;6.05;5.35;;;15.10;96.70;;;;;;4870243;29;20117;-75
2021/11/16 13:00:01;;;;;;;6.18;4.95;;;15.10;96.70;;;;;;4889536;29;20052;-76
2021/11/16 13:02:33;;;;;;;8.90;5.40;;;15.10;96.70;;;;;;4888727;29;20059;-76
2021/11/16 13:05:04;;;;;;;5.20;4.25;;;15.00;96.70;;;;;;4855960;29;20715;-75
2021/11/16 13:07:39;;;;;;;7.78;4.88;;;15.00;96.70;;;;;;4873794;29;20513;-76
2021/11/16 13:10:11;;;;;;;4.85;4.05;;;15.00;96.70;;;;;;4892353;29;20112;-75
2021/11/16 13:12:50;;;;;;;5.13;4.35;;;14.90;96.70;;;;;;4886251;29;20040;-75